Time;durP1;ratioP1;P1;durP2;ratioP2;P2;SDS_P1;SDS_P2;PMS_P1;PMS_P2;Temp;Humidity;BMP_temperature;BMP_pressure;BME280_temperature;BME280_humidity;BME280_pressure;Samples;Min_cycle;Max_cycle;Signal;HPM_P1;HPM_P2
2023/08/23 00:00:03;;;;;;;1.50;0.90;;;19.10;98.20;;;;;;4857902;29;20541;-79
2023/08/23 00:02:30;;;;;;;1.50;0.90;;;19.10;98.20;;;;;;4862738;29;23309;-78
2023/08/23 00:04:58;;;;;;;1.50;0.90;;;19.10;98.20;;;;;;4856668;29;20988;-79
2023/08/23 00:07:25;;;;;;;1.43;0.90;;;19.10;98.20;;;;;;4860229;29;20490;-79
2023/08/23 00:09:52;;;;;;;1.47;0.90;;;19.00;98.20;;;;;;4856798;29;20498;-79
2023/08/23 00:12:19;;;;;;;1.50;1.00;;;19.00;98.20;;;;;;4857268;29;20556;-78
2023/08/23 00:14:46;;;;;;;1.50;0.90;;;19.00;98.20;;;;;;4856469;29;20471;-78
2023/08/23 00:17:12;;;;;;;1.43;0.90;;;19.00;98.20;;;;;;4863718;29;20482;-78
2023/08/23 00:19:39;;;;;;;1.50;1.00;;;18.90;98.20;;;;;;4860946;29;20493;-78
2023/08/23 00:22:07;;;;;;;1.50;0.90;;;18.90;98.20;;;;;;4864430;29;20880;-79
2023/08/23 00:24:34;;;;;;;1.50;0.90;;;18.90;98.20;;;;;;4863196;29;20460;-78
2023/08/23 00:27:01;;;;;;;1.50;0.90;;;18.80;98.20;;;;;;4858783;29;20950;-79
2023/08/23 00:29:28;;;;;;;1.50;0.90;;;18.80;98.20;;;;;;4864143;29;20504;-78
2023/08/23 00:31:54;;;;;;;1.50;1.00;;;18.80;98.20;;;;;;4862037;29;20508;-79
2023/08/23 00:34:21;;;;;;;1.50;1.00;;;18.80;98.20;;;;;;4862196;29;20495;-79
2023/08/23 00:36:48;;;;;;;1.43;0.90;;;18.70;98.20;;;;;;4854799;29;21043;-77
2023/08/23 00:39:16;;;;;;;1.50;1.00;;;18.70;98.20;;;;;;4873901;29;20488;-81
2023/08/23 00:41:44;;;;;;;1.47;0.93;;;18.70;98.20;;;;;;4870048;29;20494;-79
2023/08/23 00:44:11;;;;;;;1.50;1.00;;;18.70;98.20;;;;;;4877762;29;20463;-82
2023/08/23 00:46:39;;;;;;;1.50;0.90;;;18.70;98.20;;;;;;4866555;29;20562;-81
2023/08/23 00:49:06;;;;;;;1.50;0.90;;;18.60;98.20;;;;;;4875004;29;20505;-81
2023/08/23 00:51:34;;;;;;;1.50;0.90;;;18.60;98.20;;;;;;4865588;29;20486;-81
2023/08/23 00:54:01;;;;;;;1.50;1.00;;;18.60;98.20;;;;;;4875293;29;20916;-81
2023/08/23 00:56:30;;;;;;;1.50;0.90;;;18.60;98.20;;;;;;4863341;29;21096;-81
2023/08/23 00:58:58;;;;;;;1.50;0.93;;;18.50;98.20;;;;;;4873584;29;20471;-82
2023/08/23 01:01:25;;;;;;;1.50;1.00;;;18.50;98.20;;;;;;4862972;29;20513;-81
2023/08/23 01:03:52;;;;;;;1.50;0.90;;;18.50;98.20;;;;;;4880336;29;20475;-81
2023/08/23 01:06:45;;;;;;;1.50;0.90;;;18.50;98.20;;;;;;4871463;29;20495;-80
2023/08/23 01:09:23;;;;;;;2.07;1.97;;;18.40;98.20;;;;;;4872207;29;20479;-79
2023/08/23 01:11:56;;;;;;;1.50;0.93;;;18.40;98.20;;;;;;4868139;29;20549;-82
2023/08/23 01:14:32;;;;;;;1.50;1.00;;;18.40;98.20;;;;;;4877202;29;20506;-79
2023/08/23 01:17:00;;;;;;;1.50;0.93;;;18.40;98.20;;;;;;4872022;29;20488;-81
2023/08/23 01:19:46;;;;;;;1.50;1.00;;;18.40;98.20;;;;;;4870514;29;20575;-81
2023/08/23 01:22:18;;;;;;;1.50;0.90;;;18.30;98.20;;;;;;4866800;29;21005;-79
2023/08/23 01:24:47;;;;;;;1.50;1.00;;;18.30;98.20;;;;;;4873887;29;20539;-81
2023/08/23 01:27:13;;;;;;;1.47;0.90;;;18.30;98.20;;;;;;4873166;29;20482;-82
2023/08/23 01:29:40;;;;;;;1.50;0.90;;;18.30;98.20;;;;;;4876396;29;20503;-82
2023/08/23 01:32:31;;;;;;;1.50;1.00;;;18.20;98.20;;;;;;4875545;29;20504;-80
2023/08/23 01:35:05;;;;;;;1.50;1.00;;;18.30;98.20;;;;;;4871645;29;20686;-81
2023/08/23 01:37:34;;;;;;;1.50;1.00;;;18.20;98.20;;;;;;4874983;29;20489;-79
2023/08/23 01:40:03;;;;;;;1.50;0.90;;;18.20;98.20;;;;;;4873243;29;20494;-80
2023/08/23 01:42:31;;;;;;;1.50;0.90;;;18.20;98.20;;;;;;4879139;29;20482;-80
2023/08/23 01:44:58;;;;;;;1.50;0.90;;;18.20;98.20;;;;;;4875808;29;20468;-82
2023/08/23 01:47:24;;;;;;;1.50;0.90;;;18.20;98.20;;;;;;4876388;29;20490;-81
2023/08/23 01:49:51;;;;;;;1.50;1.00;;;18.20;98.20;;;;;;4870173;29;20487;-79
2023/08/23 01:52:18;;;;;;;1.50;0.90;;;18.20;98.20;;;;;;4877645;29;20553;-81
2023/08/23 01:54:45;;;;;;;1.50;0.90;;;18.10;98.20;;;;;;4876343;29;20495;-80
2023/08/23 01:57:13;;;;;;;1.50;0.90;;;18.10;98.20;;;;;;4876902;29;20493;-81
2023/08/23 01:59:39;;;;;;;1.50;0.90;;;18.10;98.20;;;;;;4873582;29;20721;-81
2023/08/23 02:02:06;;;;;;;1.50;1.00;;;18.00;98.20;;;;;;4872341;29;20538;-80
2023/08/23 02:04:33;;;;;;;1.50;0.90;;;18.00;98.20;;;;;;4877270;29;20471;-81
2023/08/23 02:07:00;;;;;;;1.50;0.97;;;18.00;98.20;;;;;;4873526;29;20493;-82
2023/08/23 02:09:27;;;;;;;1.50;0.90;;;18.00;98.20;;;;;;4872040;29;20503;-82
2023/08/23 02:11:53;;;;;;;1.50;0.90;;;18.00;98.20;;;;;;4875448;29;20490;-81
2023/08/23 02:14:22;;;;;;;1.50;1.00;;;18.00;98.20;;;;;;4878939;29;20566;-82
2023/08/23 02:16:48;;;;;;;1.50;0.93;;;18.00;98.20;;;;;;4870771;29;20518;-81
2023/08/23 02:19:15;;;;;;;1.50;0.90;;;18.00;98.20;;;;;;4883148;29;20463;-80
2023/08/23 02:21:42;;;;;;;1.50;1.00;;;17.90;98.20;;;;;;4874003;29;20513;-79
2023/08/23 02:24:09;;;;;;;1.50;1.00;;;17.90;98.20;;;;;;4877812;29;20492;-81
2023/08/23 02:26:36;;;;;;;1.50;0.90;;;17.90;98.20;;;;;;4870736;29;21168;-80
2023/08/23 02:29:03;;;;;;;1.50;1.00;;;17.90;98.20;;;;;;4881764;29;20471;-80
2023/08/23 02:31:31;;;;;;;1.50;1.00;;;17.80;98.20;;;;;;4875214;29;20542;-81
2023/08/23 02:33:58;;;;;;;1.50;1.00;;;17.80;98.20;;;;;;4882588;29;20487;-80
2023/08/23 02:36:25;;;;;;;1.50;0.90;;;17.80;98.20;;;;;;4868298;29;20486;-80
2023/08/23 02:38:52;;;;;;;1.50;0.90;;;17.80;98.20;;;;;;4882171;29;20495;-81
2023/08/23 02:41:18;;;;;;;1.50;1.00;;;17.80;98.20;;;;;;4870498;29;20489;-80
2023/08/23 02:43:45;;;;;;;1.50;1.00;;;17.80;98.20;;;;;;4880435;29;20468;-81
2023/08/23 02:46:12;;;;;;;1.50;1.00;;;17.80;98.20;;;;;;4870066;29;20469;-81
2023/08/23 02:48:40;;;;;;;1.50;0.90;;;17.80;98.20;;;;;;4879440;29;20468;-81
2023/08/23 02:51:07;;;;;;;1.50;1.00;;;17.70;98.20;;;;;;4868845;29;20501;-82
2023/08/23 02:53:33;;;;;;;1.50;0.97;;;17.70;98.20;;;;;;4881925;29;20528;-82
2023/08/23 02:56:00;;;;;;;1.50;1.00;;;17.70;98.20;;;;;;4867011;29;20474;-81
2023/08/23 02:58:27;;;;;;;1.50;1.00;;;17.70;98.20;;;;;;4882377;29;20219;-80
2023/08/23 03:00:53;;;;;;;1.50;0.90;;;17.70;98.20;;;;;;4863963;29;20494;-81
2023/08/23 03:03:20;;;;;;;1.50;0.90;;;17.70;98.20;;;;;;4880070;29;20473;-80
2023/08/23 03:05:55;;;;;;;1.50;0.90;;;17.70;98.20;;;;;;4865504;29;20501;-81
2023/08/23 03:08:22;;;;;;;1.50;0.90;;;17.70;98.20;;;;;;4879649;29;20539;-82
2023/08/23 03:10:48;;;;;;;1.50;1.00;;;17.70;98.20;;;;;;4863226;29;20506;-80
2023/08/23 03:13:15;;;;;;;1.50;0.90;;;17.60;98.20;;;;;;4890490;29;20466;-79
2023/08/23 03:15:42;;;;;;;1.50;0.90;;;17.60;98.20;;;;;;4869423;29;20479;-80
2023/08/23 03:18:09;;;;;;;1.50;1.00;;;17.60;98.20;;;;;;4878568;29;20503;-81
2023/08/23 03:20:36;;;;;;;1.50;0.97;;;17.60;98.20;;;;;;4874290;29;20556;-79
2023/08/23 03:23:04;;;;;;;1.50;0.93;;;17.60;98.20;;;;;;4881522;29;20502;-80
2023/08/23 03:25:33;;;;;;;1.50;1.00;;;17.70;98.20;;;;;;4866426;29;20539;-78
2023/08/23 03:28:00;;;;;;;1.47;0.90;;;17.60;98.20;;;;;;4873974;29;20494;-79
2023/08/23 03:30:26;;;;;;;1.50;0.90;;;17.70;98.20;;;;;;4865083;29;20500;-79
2023/08/23 03:32:53;;;;;;;1.50;0.90;;;17.70;98.20;;;;;;4877859;29;20498;-78
2023/08/23 03:35:20;;;;;;;1.50;1.10;;;17.70;98.20;;;;;;4870597;29;20491;-77
2023/08/23 03:37:47;;;;;;;1.50;1.00;;;17.60;98.20;;;;;;4875494;29;20486;-79
2023/08/23 03:40:15;;;;;;;1.47;0.90;;;17.60;98.20;;;;;;4861381;29;20499;-79
2023/08/23 03:42:42;;;;;;;1.50;1.07;;;17.60;98.20;;;;;;4872672;29;20497;-79
2023/08/23 03:45:09;;;;;;;1.50;0.90;;;17.50;98.20;;;;;;4866590;29;20466;-79
2023/08/23 03:47:36;;;;;;;1.50;0.90;;;17.50;98.20;;;;;;4870256;29;20488;-80
2023/08/23 03:50:03;;;;;;;1.50;0.93;;;17.50;98.20;;;;;;4872098;29;20510;-80
2023/08/23 03:52:30;;;;;;;1.50;1.00;;;17.50;98.20;;;;;;4874474;29;20517;-78
2023/08/23 03:54:56;;;;;;;1.50;0.90;;;17.50;98.20;;;;;;4872871;29;20788;-79
2023/08/23 03:57:24;;;;;;;1.50;0.97;;;17.50;98.20;;;;;;4874871;29;20528;-78
2023/08/23 03:59:51;;;;;;;1.50;1.00;;;17.50;98.20;;;;;;4873757;29;20552;-79
2023/08/23 04:02:18;;;;;;;1.50;1.00;;;17.40;98.20;;;;;;4876418;29;20566;-80
2023/08/23 04:04:45;;;;;;;1.50;0.90;;;17.40;98.20;;;;;;4874216;29;20465;-78
2023/08/23 04:07:16;;;;;;;1.50;0.90;;;17.40;98.20;;;;;;4871658;29;20574;-79
2023/08/23 04:09:43;;;;;;;1.50;1.00;;;17.40;98.20;;;;;;4875409;29;20522;-79
2023/08/23 04:12:10;;;;;;;1.50;0.90;;;17.40;98.20;;;;;;4873269;29;20494;-79
2023/08/23 04:14:38;;;;;;;1.50;1.00;;;17.40;98.20;;;;;;4874365;29;20487;-79
2023/08/23 04:17:05;;;;;;;1.50;1.00;;;17.40;98.20;;;;;;4866009;29;20577;-78
2023/08/23 04:19:32;;;;;;;1.50;0.90;;;17.40;98.20;;;;;;4873757;29;20574;-79
2023/08/23 04:21:58;;;;;;;1.50;1.00;;;17.40;98.20;;;;;;4873188;29;20466;-79
2023/08/23 04:24:25;;;;;;;1.50;0.90;;;17.40;98.20;;;;;;4878915;29;20517;-79
2023/08/23 04:26:52;;;;;;;1.50;1.00;;;17.40;98.20;;;;;;4865782;29;20590;-79
2023/08/23 04:29:19;;;;;;;1.50;0.90;;;17.30;98.20;;;;;;4874123;29;20562;-78
2023/08/23 04:31:47;;;;;;;1.50;1.00;;;17.30;98.20;;;;;;4867450;29;21068;-79
2023/08/23 04:34:14;;;;;;;1.50;1.20;;;17.30;98.20;;;;;;4876103;29;20528;-78
2023/08/23 04:36:40;;;;;;;1.50;0.90;;;17.30;98.20;;;;;;4865016;29;20546;-79
2023/08/23 04:39:07;;;;;;;1.50;0.90;;;17.30;98.20;;;;;;4874763;29;20551;-78
2023/08/23 04:41:34;;;;;;;1.50;0.97;;;17.30;98.20;;;;;;4873541;29;20952;-79
2023/08/23 04:44:01;;;;;;;1.50;1.00;;;17.30;98.20;;;;;;4877458;29;20525;-78
2023/08/23 04:46:27;;;;;;;1.50;0.93;;;17.30;98.20;;;;;;4864790;29;20979;-78
2023/08/23 04:48:56;;;;;;;1.50;0.90;;;17.30;98.20;;;;;;4877170;29;20483;-79
2023/08/23 04:51:23;;;;;;;1.50;1.00;;;17.30;98.20;;;;;;4868671;29;20477;-78
2023/08/23 04:53:50;;;;;;;1.50;1.00;;;17.30;98.20;;;;;;4876444;29;20467;-78
2023/08/23 04:56:17;;;;;;;1.50;0.90;;;17.30;98.20;;;;;;4865063;29;20489;-79
2023/08/23 04:58:44;;;;;;;1.50;1.00;;;17.30;98.20;;;;;;4876345;29;20975;-79
2023/08/23 05:01:10;;;;;;;1.50;0.90;;;17.30;98.20;;;;;;4865689;29;20613;-81
2023/08/23 05:03:37;;;;;;;1.50;1.00;;;17.30;98.20;;;;;;4880144;29;20495;-79
2023/08/23 05:06:05;;;;;;;1.50;0.90;;;17.30;98.20;;;;;;4862637;29;20475;-80
2023/08/23 05:08:34;;;;;;;1.50;0.90;;;17.30;98.20;;;;;;4878196;29;20498;-80
2023/08/23 05:11:01;;;;;;;1.50;1.00;;;17.30;98.20;;;;;;4860505;29;20493;-78
2023/08/23 05:13:28;;;;;;;1.50;0.90;;;17.30;98.20;;;;;;4881924;29;20479;-79
2023/08/23 05:15:55;;;;;;;1.50;1.00;;;17.30;98.20;;;;;;4859126;29;20625;-78
2023/08/23 05:18:22;;;;;;;1.50;0.90;;;17.30;98.20;;;;;;4877609;29;20479;-79
2023/08/23 05:20:54;;;;;;;1.50;1.00;;;17.30;98.20;;;;;;4852898;29;20501;-78
2023/08/23 05:23:23;;;;;;;1.50;1.00;;;17.30;98.20;;;;;;4873546;29;20532;-79
2023/08/23 05:25:51;;;;;;;1.50;1.00;;;17.30;98.20;;;;;;4851433;29;20476;-79
2023/08/23 05:28:18;;;;;;;1.50;1.00;;;17.40;98.20;;;;;;4875374;29;20463;-78
2023/08/23 05:30:45;;;;;;;1.43;0.90;;;17.40;98.20;;;;;;4861367;29;20526;-79
2023/08/23 05:33:12;;;;;;;1.50;0.90;;;17.50;98.20;;;;;;4847732;29;20814;-79
2023/08/23 05:35:40;;;;;;;1.50;1.00;;;17.60;98.20;;;;;;4854898;29;20684;-78
2023/08/23 05:38:07;;;;;;;1.50;0.90;;;17.60;98.20;;;;;;4867372;29;20498;-79
2023/08/23 05:40:36;;;;;;;1.50;0.90;;;17.70;98.20;;;;;;4865428;29;20503;-81
2023/08/23 05:43:02;;;;;;;1.50;0.90;;;17.80;98.20;;;;;;4862255;29;20494;-81
2023/08/23 05:45:29;;;;;;;1.50;1.00;;;17.80;98.20;;;;;;4864997;29;20472;-78
2023/08/23 05:47:57;;;;;;;1.50;0.90;;;18.00;98.20;;;;;;4856049;29;21181;-78
2023/08/23 05:50:24;;;;;;;1.50;1.00;;;18.00;98.20;;;;;;4857907;29;20885;-77
2023/08/23 05:52:51;;;;;;;1.50;1.00;;;18.20;98.20;;;;;;4864657;29;20584;-77
2023/08/23 05:55:18;;;;;;;1.50;0.90;;;18.30;98.20;;;;;;4843895;29;20558;-77
2023/08/23 05:57:46;;;;;;;1.50;1.10;;;18.40;98.20;;;;;;4849800;29;20613;-76
2023/08/23 06:00:14;;;;;;;1.50;0.90;;;18.50;98.20;;;;;;5260698;23;20566;-81
2023/08/23 06:02:41;;;;;;;1.50;0.90;;;18.70;98.20;;;;;;4847163;29;20501;-79
2023/08/23 06:05:10;;;;;;;1.50;0.90;;;18.80;98.20;;;;;;4851695;29;20670;-79
2023/08/23 06:07:37;;;;;;;1.50;1.00;;;18.80;98.20;;;;;;4849578;29;20490;-78
2023/08/23 06:10:05;;;;;;;1.50;0.90;;;18.90;98.20;;;;;;4849790;29;20498;-78
2023/08/23 06:12:32;;;;;;;1.50;1.00;;;19.10;98.20;;;;;;4850380;29;20670;-78
2023/08/23 06:15:00;;;;;;;1.50;0.90;;;19.20;98.20;;;;;;4847652;29;20594;-79
2023/08/23 06:17:28;;;;;;;1.50;0.90;;;19.30;98.20;;;;;;5277724;23;20932;-79
2023/08/23 06:19:55;;;;;;;1.50;1.00;;;19.40;98.20;;;;;;4845759;29;20901;-77
2023/08/23 06:22:22;;;;;;;1.50;0.90;;;19.60;98.20;;;;;;4847657;29;20526;-79
2023/08/23 06:24:55;;;;;;;1.50;0.90;;;19.70;98.20;;;;;;4848329;29;20470;-79
2023/08/23 06:27:21;;;;;;;1.50;1.00;;;19.80;98.20;;;;;;4846125;29;20495;-80
2023/08/23 06:29:48;;;;;;;1.50;0.90;;;19.90;98.20;;;;;;4832966;29;20471;-82
2023/08/23 06:32:17;;;;;;;1.50;0.90;;;20.00;98.20;;;;;;4834804;29;20527;-78
2023/08/23 06:34:43;;;;;;;1.50;0.90;;;20.10;98.20;;;;;;4837079;29;21097;-79
2023/08/23 06:37:11;;;;;;;1.50;0.90;;;20.20;98.20;;;;;;4843224;29;20552;-80
2023/08/23 06:39:37;;;;;;;1.50;0.93;;;20.40;98.20;;;;;;4852268;29;20468;-82
2023/08/23 06:42:04;;;;;;;1.50;0.90;;;20.60;98.20;;;;;;4850203;29;20578;-80
2023/08/23 06:44:31;;;;;;;1.50;1.00;;;20.80;98.20;;;;;;4852127;29;20469;-83
2023/08/23 06:46:58;;;;;;;1.50;0.90;;;21.00;98.20;;;;;;4850625;29;20946;-79
2023/08/23 06:49:26;;;;;;;1.50;0.90;;;21.10;98.20;;;;;;4854347;29;20479;-80
2023/08/23 06:51:53;;;;;;;1.50;0.90;;;21.30;98.20;;;;;;4852537;29;20483;-80
2023/08/23 06:54:20;;;;;;;1.50;0.90;;;21.40;98.20;;;;;;4860731;29;20483;-81
2023/08/23 06:56:47;;;;;;;1.50;0.90;;;21.50;98.20;;;;;;4847992;29;20547;-78
2023/08/23 06:59:14;;;;;;;1.50;0.90;;;21.50;98.20;;;;;;4857635;29;20503;-79
2023/08/23 07:01:41;;;;;;;1.50;0.90;;;21.50;98.20;;;;;;4849915;29;20491;-80
2023/08/23 07:04:08;;;;;;;1.50;0.90;;;21.60;98.20;;;;;;4857733;29;20486;-80
2023/08/23 07:06:36;;;;;;;1.50;1.00;;;21.80;98.20;;;;;;4848497;29;20564;-81
2023/08/23 07:09:03;;;;;;;1.50;0.90;;;22.00;98.20;;;;;;4852786;29;20491;-81
2023/08/23 07:11:30;;;;;;;1.50;0.90;;;22.10;98.20;;;;;;4843761;29;21232;-81
2023/08/23 07:13:57;;;;;;;1.50;0.90;;;22.30;98.20;;;;;;4857871;29;20472;-79
2023/08/23 07:16:24;;;;;;;1.50;0.90;;;22.50;98.20;;;;;;4842049;29;20493;-82
2023/08/23 07:18:50;;;;;;;1.80;1.40;;;22.60;98.20;;;;;;4858197;29;20526;-78
2023/08/23 07:21:17;;;;;;;1.70;1.60;;;22.70;98.20;;;;;;4845642;29;20584;-80
2023/08/23 07:23:45;;;;;;;1.50;0.90;;;22.80;98.20;;;;;;4855995;29;20477;-80
2023/08/23 07:26:12;;;;;;;1.50;0.90;;;23.00;98.20;;;;;;4840484;29;20492;-80
2023/08/23 07:28:39;;;;;;;1.50;0.90;;;23.10;98.20;;;;;;4854680;29;20514;-79
2023/08/23 07:31:05;;;;;;;1.50;0.90;;;23.20;98.20;;;;;;4840744;29;20968;-81
2023/08/23 07:33:33;;;;;;;1.50;0.90;;;23.30;98.20;;;;;;4857113;29;20555;-79
2023/08/23 07:36:01;;;;;;;1.50;0.90;;;23.50;98.20;;;;;;4838880;29;20498;-78
2023/08/23 07:38:31;;;;;;;1.50;0.90;;;23.70;98.20;;;;;;4856248;29;20575;-78
2023/08/23 07:41:00;;;;;;;1.50;0.90;;;23.80;98.20;;;;;;4837198;29;20473;-80
2023/08/23 07:43:27;;;;;;;1.50;0.90;;;24.10;98.20;;;;;;4858090;29;20980;-81
2023/08/23 07:45:54;;;;;;;1.50;0.80;;;24.20;98.20;;;;;;4835054;29;20472;-81
2023/08/23 07:48:22;;;;;;;1.50;0.90;;;24.40;98.20;;;;;;4860297;29;20488;-81
2023/08/23 07:50:49;;;;;;;1.50;0.90;;;24.50;98.20;;;;;;4837039;29;20995;-81
2023/08/23 07:53:16;;;;;;;1.50;0.90;;;24.70;98.20;;;;;;4861381;29;20480;-82
2023/08/23 07:55:43;;;;;;;1.50;0.90;;;24.90;98.20;;;;;;4845324;29;21027;-81
2023/08/23 07:58:12;;;;;;;1.50;0.90;;;25.00;98.20;;;;;;4850359;29;20488;-80
2023/08/23 08:00:39;;;;;;;1.50;0.90;;;25.20;98.20;;;;;;4841352;29;20476;-80
2023/08/23 08:03:08;;;;;;;1.50;0.90;;;25.20;98.20;;;;;;4849596;29;20526;-80
2023/08/23 08:05:35;;;;;;;1.50;0.83;;;25.30;98.20;;;;;;4841838;29;20468;-80
2023/08/23 08:08:02;;;;;;;1.50;0.80;;;25.40;98.10;;;;;;4848233;29;20495;-81
2023/08/23 08:10:29;;;;;;;1.50;0.90;;;25.60;98.20;;;;;;4842907;29;20468;-80
2023/08/23 08:12:58;;;;;;;1.50;0.80;;;25.50;98.20;;;;;;4846967;29;20871;-79
2023/08/23 08:15:27;;;;;;;1.50;0.90;;;25.60;98.10;;;;;;4841623;29;20590;-81
2023/08/23 08:17:54;;;;;;;1.40;0.80;;;25.70;97.40;;;;;;4848630;29;20490;-79
2023/08/23 08:20:24;;;;;;;1.50;0.90;;;25.90;97.20;;;;;;4838374;29;20484;-80
2023/08/23 08:22:54;;;;;;;1.50;0.80;;;26.00;96.80;;;;;;4853372;29;20483;-80
2023/08/23 08:25:21;;;;;;;1.50;0.90;;;26.10;96.80;;;;;;4841874;29;20476;-80
2023/08/23 08:27:48;;;;;;;1.50;0.87;;;26.30;97.20;;;;;;4845573;29;20541;-80
2023/08/23 08:30:15;;;;;;;1.50;1.00;;;26.50;95.80;;;;;;4838965;29;20889;-78
2023/08/23 08:32:44;;;;;;;1.60;1.00;;;26.60;95.40;;;;;;4844135;29;20498;-79
2023/08/23 08:35:11;;;;;;;1.50;0.80;;;26.80;95.40;;;;;;4839930;29;20535;-79
2023/08/23 08:37:38;;;;;;;1.50;0.90;;;26.90;95.30;;;;;;4843266;29;21105;-79
2023/08/23 08:40:06;;;;;;;1.50;0.80;;;27.00;95.70;;;;;;4836665;29;20702;-79
2023/08/23 08:42:34;;;;;;;1.50;0.80;;;27.20;94.30;;;;;;4845819;29;20540;-81
2023/08/23 08:45:01;;;;;;;1.50;0.80;;;27.20;93.70;;;;;;4848767;29;20514;-79
2023/08/23 08:47:27;;;;;;;1.47;0.80;;;27.30;93.30;;;;;;4846891;29;20690;-79
2023/08/23 08:49:56;;;;;;;1.50;0.90;;;27.40;93.30;;;;;;4844571;29;20468;-79
2023/08/23 08:52:26;;;;;;;1.50;0.80;;;27.40;92.70;;;;;;4848255;29;20499;-80
2023/08/23 08:54:55;;;;;;;1.50;0.80;;;27.50;92.80;;;;;;4846613;29;20481;-79
2023/08/23 08:57:23;;;;;;;1.47;0.80;;;27.60;92.60;;;;;;4845005;29;20522;-79
2023/08/23 08:59:51;;;;;;;1.50;0.90;;;27.80;93.10;;;;;;4844357;29;20491;-79
2023/08/23 09:02:19;;;;;;;1.47;0.80;;;27.90;91.50;;;;;;4843303;29;20570;-79
2023/08/23 09:04:47;;;;;;;1.47;0.80;;;28.10;91.40;;;;;;4844381;29;20559;-80
2023/08/23 09:07:16;;;;;;;1.50;1.00;;;28.30;89.50;;;;;;4842805;29;20577;-81
2023/08/23 09:09:43;;;;;;;1.50;0.80;;;28.40;90.50;;;;;;4841842;29;20486;-79
2023/08/23 09:12:10;;;;;;;1.50;0.83;;;28.50;87.90;;;;;;4843926;29;21108;-81
2023/08/23 09:14:38;;;;;;;1.50;0.80;;;28.60;88.60;;;;;;4848112;29;20500;-82
2023/08/23 09:17:08;;;;;;;1.50;0.80;;;28.60;89.00;;;;;;4846471;29;21019;-80
2023/08/23 09:19:36;;;;;;;1.57;1.10;;;28.80;88.90;;;;;;4839807;29;20491;-81
2023/08/23 09:22:05;;;;;;;1.47;0.80;;;28.90;87.80;;;;;;4841258;29;20478;-79
2023/08/23 09:24:34;;;;;;;1.50;0.80;;;28.90;87.80;;;;;;4843960;29;20471;-80
2023/08/23 09:27:01;;;;;;;1.50;0.80;;;28.90;87.30;;;;;;4841357;29;21065;-79
2023/08/23 09:29:28;;;;;;;1.47;0.80;;;29.00;87.50;;;;;;4846203;29;20475;-82
2023/08/23 09:31:59;;;;;;;1.50;0.90;;;29.20;87.80;;;;;;4841291;29;20518;-80
2023/08/23 09:34:25;;;;;;;1.47;0.80;;;29.30;87.00;;;;;;4845790;29;20937;-80
2023/08/23 09:36:52;;;;;;;1.50;0.80;;;29.40;86.50;;;;;;4842315;29;20491;-81
2023/08/23 09:39:19;;;;;;;1.47;0.80;;;29.50;84.80;;;;;;4846788;29;20463;-82
2023/08/23 09:41:47;;;;;;;1.43;0.80;;;29.50;85.20;;;;;;4842888;29;20523;-80
2023/08/23 09:44:15;;;;;;;1.47;0.80;;;29.60;86.60;;;;;;4857203;29;20466;-80
2023/08/23 09:46:45;;;;;;;1.50;0.80;;;29.70;86.10;;;;;;4842245;29;20498;-80
2023/08/23 09:49:17;;;;;;;1.43;0.80;;;29.80;85.80;;;;;;4855436;29;20487;-80
2023/08/23 09:51:46;;;;;;;1.43;0.80;;;29.90;86.50;;;;;;4846893;29;20505;-81
2023/08/23 09:54:18;;;;;;;1.70;1.40;;;30.00;84.60;;;;;;4856251;29;20483;-82
2023/08/23 09:56:47;;;;;;;1.47;0.80;;;30.10;86.40;;;;;;4845671;29;20483;-80
2023/08/23 09:59:13;;;;;;;1.50;0.80;;;30.20;84.00;;;;;;4851469;29;20574;-82
2023/08/23 10:01:40;;;;;;;1.47;0.80;;;30.20;85.10;;;;;;4845258;29;20546;-82
2023/08/23 10:04:08;;;;;;;1.43;0.80;;;30.40;84.60;;;;;;4858996;29;20467;-81
2023/08/23 10:06:36;;;;;;;1.50;1.00;;;30.50;83.20;;;;;;4847708;29;20500;-82
2023/08/23 10:09:04;;;;;;;1.50;0.80;;;30.60;83.70;;;;;;4857005;29;21040;-81
2023/08/23 10:11:32;;;;;;;1.50;0.80;;;30.70;82.50;;;;;;4846964;29;20503;-81
2023/08/23 10:14:04;;;;;;;1.50;0.80;;;30.90;82.10;;;;;;4862094;29;20649;-81
2023/08/23 10:16:35;;;;;;;1.47;0.80;;;31.00;81.10;;;;;;4841183;29;20230;-83
2023/08/23 10:19:02;;;;;;;1.50;1.07;;;31.10;80.40;;;;;;4851636;29;20243;-82
2023/08/23 10:21:29;;;;;;;1.50;1.00;;;31.10;81.40;;;;;;4840723;29;20554;-84
2023/08/23 10:23:56;;;;;;;1.50;0.90;;;31.30;80.50;;;;;;4858451;29;20221;-82
2023/08/23 10:26:26;;;;;;;1.47;0.80;;;31.40;80.60;;;;;;4842419;29;20242;-81
2023/08/23 10:28:54;;;;;;;1.40;0.80;;;31.40;80.80;;;;;;4857488;29;20260;-84
2023/08/23 10:31:27;;;;;;;1.47;0.80;;;31.60;80.90;;;;;;4843626;29;20573;-81
2023/08/23 10:33:55;;;;;;;1.90;1.10;;;31.60;78.50;;;;;;4857316;29;20762;-83
2023/08/23 10:36:24;;;;;;;1.50;0.90;;;31.70;79.90;;;;;;4839399;29;20325;-82
2023/08/23 10:38:51;;;;;;;1.47;0.80;;;31.90;78.50;;;;;;4853218;29;20236;-82
2023/08/23 10:41:19;;;;;;;1.50;0.90;;;31.90;78.00;;;;;;4840081;29;20605;-82
2023/08/23 10:43:47;;;;;;;1.47;0.80;;;32.00;77.70;;;;;;4861246;29;20305;-82
2023/08/23 10:46:19;;;;;;;1.47;0.80;;;32.00;79.40;;;;;;4844953;29;20728;-87
2023/08/23 10:48:48;;;;;;;1.43;0.80;;;32.20;79.00;;;;;;4855629;29;20643;-81
2023/08/23 10:51:15;;;;;;;1.43;0.80;;;32.10;79.20;;;;;;4845140;29;20304;-81
2023/08/23 10:53:43;;;;;;;1.47;0.80;;;32.10;78.60;;;;;;4857982;29;20218;-81
2023/08/23 10:56:11;;;;;;;1.47;0.80;;;32.10;78.00;;;;;;4843047;29;20618;-80
2023/08/23 10:58:38;;;;;;;1.47;0.90;;;32.00;77.50;;;;;;4855871;29;20234;-82
2023/08/23 11:01:05;;;;;;;1.43;0.80;;;32.00;77.50;;;;;;4836418;29;20219;-80
2023/08/23 11:03:33;;;;;;;1.47;0.80;;;31.80;78.10;;;;;;4854906;29;20694;-81
2023/08/23 11:06:02;;;;;;;1.43;0.80;;;31.80;78.60;;;;;;4836678;29;20245;-84
2023/08/23 11:08:30;;;;;;;1.50;0.80;;;31.70;78.50;;;;;;4861680;29;20243;-82
2023/08/23 11:10:57;;;;;;;1.43;0.87;;;31.50;78.10;;;;;;4837422;29;20262;-81
2023/08/23 11:13:25;;;;;;;1.50;0.90;;;31.40;79.40;;;;;;4864018;29;20306;-82
2023/08/23 11:15:52;;;;;;;1.47;0.80;;;31.50;78.70;;;;;;4838361;29;20234;-80
2023/08/23 11:18:19;;;;;;;1.40;0.80;;;31.50;78.90;;;;;;4864674;29;20253;-78
2023/08/23 11:20:46;;;;;;;1.47;0.80;;;31.30;77.50;;;;;;4843824;29;20211;-79
2023/08/23 11:23:14;;;;;;;1.50;0.90;;;31.10;77.30;;;;;;4853839;29;20238;-77
2023/08/23 11:25:41;;;;;;;1.43;0.80;;;30.90;78.30;;;;;;4862236;29;20221;-79
2023/08/23 11:28:10;;;;;;;1.47;0.80;;;30.70;77.70;;;;;;4872653;29;20697;-79
2023/08/23 11:30:37;;;;;;;1.40;0.83;;;30.60;79.00;;;;;;4862257;29;20597;-79
2023/08/23 11:33:05;;;;;;;1.43;0.80;;;30.70;79.60;;;;;;4875967;29;20304;-81
2023/08/23 11:35:32;;;;;;;1.43;0.90;;;30.90;79.20;;;;;;4867364;29;20482;-79
2023/08/23 11:37:59;;;;;;;1.43;0.80;;;31.20;76.90;;;;;;4875731;29;20496;-80
2023/08/23 11:40:27;;;;;;;1.40;0.80;;;31.40;76.70;;;;;;4863442;29;20229;-78
2023/08/23 11:42:57;;;;;;;1.47;0.80;;;31.70;74.90;;;;;;4868654;29;20233;-83
2023/08/23 11:45:24;;;;;;;1.50;0.80;;;32.00;74.00;;;;;;4863851;29;20243;-79
2023/08/23 11:47:56;;;;;;;1.47;0.80;;;32.10;74.30;;;;;;4871332;29;20346;-79
2023/08/23 11:50:23;;;;;;;1.43;0.80;;;32.30;75.70;;;;;;4865153;29;20244;-79
2023/08/23 11:52:50;;;;;;;1.40;0.80;;;32.30;75.00;;;;;;4872429;29;20241;-81
2023/08/23 11:55:23;;;;;;;1.47;0.80;;;32.50;73.90;;;;;;4859032;29;20228;-81
2023/08/23 11:57:55;;;;;;;1.48;0.80;;;32.60;71.20;;;;;;4866063;29;20252;-77
2023/08/23 12:00:24;;;;;;;1.40;0.80;;;32.70;69.50;;;;;;4857528;29;20322;-80
2023/08/23 12:02:50;;;;;;;1.43;0.80;;;32.80;71.10;;;;;;4865896;29;20304;-78
2023/08/23 12:05:19;;;;;;;1.43;0.80;;;32.90;70.90;;;;;;4858770;29;20226;-79
2023/08/23 12:07:46;;;;;;;1.45;0.80;;;33.00;68.80;;;;;;4864429;29;20445;-81
2023/08/23 12:10:12;;;;;;;1.43;0.80;;;33.10;70.40;;;;;;4862057;29;20283;-82
2023/08/23 12:12:39;;;;;;;1.43;0.80;;;33.20;69.50;;;;;;4863601;29;20263;-82
2023/08/23 12:15:08;;;;;;;1.43;0.80;;;33.10;71.00;;;;;;4862530;29;20214;-79
2023/08/23 12:17:35;;;;;;;1.48;0.80;;;33.20;70.00;;;;;;4866044;29;20247;-80
2023/08/23 12:20:04;;;;;;;1.45;0.80;;;33.40;71.60;;;;;;4862926;29;20233;-79
2023/08/23 12:22:31;;;;;;;1.40;0.80;;;33.50;70.20;;;;;;4865913;29;20672;-80
2023/08/23 12:24:58;;;;;;;1.42;0.80;;;33.60;67.00;;;;;;4866920;29;20270;-82
2023/08/23 12:27:25;;;;;;;1.40;0.80;;;33.60;67.70;;;;;;4862415;29;20344;-80
2023/08/23 12:29:52;;;;;;;1.45;0.80;;;33.60;67.50;;;;;;4867255;29;20280;-81
2023/08/23 12:32:20;;;;;;;1.45;0.80;;;33.70;68.50;;;;;;4861367;29;20237;-79
2023/08/23 12:34:47;;;;;;;1.42;0.80;;;33.70;65.20;;;;;;4864155;29;20214;-79
2023/08/23 12:37:15;;;;;;;1.40;0.80;;;33.80;65.60;;;;;;4861847;29;20662;-79
2023/08/23 12:42:09;;;;;;;1.45;0.80;;;33.90;66.80;;;;;;4894998;29;20225;-82
2023/08/23 12:44:36;;;;;;;1.42;0.80;;;33.90;66.50;;;;;;4902630;29;20209;-81
2023/08/23 12:47:03;;;;;;;1.45;0.80;;;34.00;66.60;;;;;;4897298;29;20536;-80
2023/08/23 12:49:32;;;;;;;1.42;0.80;;;34.00;66.00;;;;;;4905088;29;20227;-81
2023/08/23 12:51:59;;;;;;;1.42;0.80;;;34.00;64.80;;;;;;4897717;28;20399;-81